Flight Track Log - Related Links

Times and Time Zones

All times are in EST time to prevent confusion due to time zone crossing. See the SKW7367 flight status page for this flight to view local times or setup timezone preferences in your user account.

Time Position Orientation Groundspeed Altitude Reporting Facility
EST Latitude Longitude Course Direction KTS MPH feet Rate Location/Type
Thu 04:02:50 PM 42.2081 -83.3675 North 133 153 1,400  Level Cleveland Center
Thu 04:04:04 PM 42.1792 -83.4214 234° Southwest 178 205 4,100 2,250 Climbing Cleveland Center
Thu 04:05:06 PM 42.1761 -83.4817 266° West 199 229 6,500 2,384 Climbing Cleveland Center
Thu 04:05:17 PM 42.1828 -83.5019 294° West 212 244 7,000 1,935 Climbing Cleveland Center
Thu 04:06:00 PM 42.5827 -83.3790 North  Level Estimated
Thu 04:06:08 PM 42.2067 -83.5514 303° West 215 247 8,500  Level Cleveland Center
Thu 04:06:12 PM 42.2133 -83.5683 298° West 223 257 8,900 1,935 Climbing Cleveland Center
Thu 04:07:00 PM 42.6753 -83.3855 North  Level Estimated
Thu 04:07:10 PM 42.2394 -83.6286 300° West 230 265 10,500  Level Cleveland Center
Thu 04:08:00 PM 42.7679 -83.3811 North  Level FlightAware Approximate
Thu 04:08:12 PM 42.3150 -83.6361 356° North 305 351 12,300  Level Cleveland Center
Thu 04:09:14 PM 42.4028 -83.5958 19° North 327 376 13,900 1,306 Climbing Cleveland Center
Thu 04:10:16 PM 42.4903 -83.5567 18° North 329 379 15,000 532 Climbing Cleveland Center
Thu 04:11:18 PM 42.5717 -83.5194 19° North 311 358 15,000  Level Cleveland Center
Thu 04:12:20 PM 42.6653 -83.4772 18° North 297 342 15,000  Level Cleveland Center
Thu 04:13:22 PM 42.7458 -83.4403 19° North 302 348 15,000  Level Cleveland Center
Thu 04:14:24 PM 42.8261 -83.4033 19° North 303 349 15,000  Level Cleveland Center
Thu 04:15:27 PM 42.9094 -83.3675 17° North 311 358 15,000 -48 Level Cleveland Center
Thu 04:16:29 PM 42.9931 -83.3656 North 301 346 14,900 -48 Descending Cleveland Center
Thu 04:17:31 PM 43.0761 -83.3686 358° North 299 344 14,900  Level Cleveland Center
Thu 04:18:33 PM 43.1353 -83.4575 312° West 260 299 14,900  Level Cleveland Center
Thu 04:19:35 PM 43.1822 -83.5281 312° West 252 290 14,900  Level Cleveland Center
Thu 04:20:37 PM 43.2264 -83.5978 311° West 244 281 14,900  Level Cleveland Center
Thu 04:21:39 PM 43.2708 -83.6669 311° West 243 280 14,900  Level Cleveland Center
Thu 04:22:41 PM 43.3136 -83.7344 311° West 237 273 14,900  Level Cleveland Center
Thu 04:23:43 PM 43.3653 -83.8153 311° West 235 270 14,900  Level Cleveland Center
Thu 04:24:45 PM 43.4089 -83.8800 313° West 233 268 14,900  Level Cleveland Center
Thu 04:25:47 PM 43.4806 -83.8883 355° North 268 308 14,900  Level Cleveland Center
Thu 04:26:50 PM 43.5569 -83.8819 North 274 315 14,900  Level Cleveland Center
Thu 04:27:52 PM 43.6369 -83.8767 North 284 327 14,900  Level Cleveland Center
Thu 04:28:54 PM 43.7197 -83.8672 North 295 339 14,900  Level Cleveland Center
Thu 04:29:56 PM 43.8050 -83.8603 North 294 338 14,900  Level Cleveland Center
Thu 04:30:58 PM 43.9019 -83.8536 North 292 336 14,900  Level Cleveland Center
Thu 04:32:00 PM 43.9825 -83.8461 North 291 335 14,900 -290 Level Cleveland Center
Thu 04:33:02 PM 44.0622 -83.8386 North 289 333 14,300 -774 Descending Cleveland Center
Thu 04:34:04 PM 44.1347 -83.8317 North 268 308 13,300 -968 Descending Cleveland Center
Thu 04:35:06 PM 44.2053 -83.8258 North 257 296 12,300 -1,065 Descending Cleveland Center
Thu 04:36:08 PM 44.2936 -83.8172 North 262 302 11,100 -1,034 Descending Cleveland Center
Thu 04:37:31 PM 44.3939 -83.7794 15° North 283 326 9,800 -1,034 Descending Minneapolis Center
Thu 04:38:33 PM 44.4706 -83.7442 18° North 274 315 8,600 -1,065 Descending Minneapolis Center
Thu 04:39:35 PM 44.5361 -83.7131 19° North 256 295 7,600 -823 Descending Minneapolis Center
Thu 04:40:37 PM 44.6028 -83.6811 19° North 240 276 6,900 -677 Descending Minneapolis Center
Thu 04:41:39 PM 44.6628 -83.6533 18° North 231 266 6,200 -726 Descending Minneapolis Center
Thu 04:42:41 PM 44.7264 -83.6236 18° North 228 262 5,400 -726 Descending Minneapolis Center
Thu 04:43:43 PM 44.7897 -83.5931 19° North 225 259 4,700 -629 Descending Minneapolis Center
Thu 04:44:45 PM 44.8442 -83.5669 19° North 214 246 4,100 -484 Descending Minneapolis Center
Thu 04:45:47 PM 44.9031 -83.5606 North 203 234 3,700 -576 Descending Minneapolis Center
Thu 04:46:50 PM 44.9561 -83.5611 360° North 197 227 2,900 -816 Descending Minneapolis Center
Thu 04:47:52 PM 45.0025 -83.5611 360° North 162 186 2,000 -823 Descending Minneapolis Center
Thu 04:48:54 PM 45.0431 -83.5611 360° North 147 169 1,200 -629 Descending Minneapolis Center
Thu 04:49:56 PM 45.0817 -83.5608 360° North 142 163 700 -484 Descending Minneapolis Center

Login

Don't have an account? Register now (free) for customized features, flight alerts, and more!